»·PEaware :: N70DM KAVX-KSAN

N70DM :: KAVX-KSAN

FLIGHT INFORMATION

Flight Status: Arrived
Operator: Privately registered:
United States
More flights under this callsign
Pilot: Anonymous 37629 (37629)
Aircraft: CESSNA 172 SKYHAWK
(C172)
More flights by this aircraft type
Origin: KAVX Catalina
United States
Destination: KSAN San Diego Intl-Lindbergh
United States
More flights between these airports :: More routes between these airports
Route: SXC V208 OCN V23 MZB
File this flight plan on PilotEdge
Remarks:
Altitude:
(Current/Filed)
5,000ft
Speed:
(Current/Filed)
117kts
Departed: 15-Jan-22 09:27 AM
Arrived: 15-Jan-22 10:32 AM
Distance/Time
Traveled:
74nm/1:05
Distance/Time
To Go:
Arrived

Flight Plot

Page will automatically refresh every two minutes.


Map Options




Map Legend


Flown Route
Filed Route
Departure Airport
Arrival Airport
Navaid (VOR, NDB)
Fix

Horizontal Profiles

Position Reports

Time Latitude Longitude Heading Altitude Ground
Speed
15-Jan-22 09:14 33.403895 -118.415081 345 1581ft 0kts
15-Jan-22 09:15 33.403895 -118.415081 345 1581ft 0kts
15-Jan-22 09:16 33.403895 -118.415081 345 1581ft 0kts
15-Jan-22 09:17 33.403895 -118.415081 345 1581ft 0kts
15-Jan-22 09:18 33.403895 -118.415081 345 1581ft 0kts
15-Jan-22 09:19 33.403895 -118.415081 345 1581ft 0kts
15-Jan-22 09:20 33.403895 -118.415081 345 1581ft 0kts
15-Jan-22 09:21 33.403895 -118.415081 345 1581ft 0kts
15-Jan-22 09:22 33.403895 -118.415081 345 1581ft 0kts
15-Jan-22 09:23 33.404064 -118.415035 13 1580ft 6kts
15-Jan-22 09:24 33.406992 -118.411723 55 1554ft 8kts
15-Jan-22 09:25 33.407399 -118.411625 253 1552ft 7kts
15-Jan-22 09:26 33.402299 -118.426365 242 1961ft 62kts
15-Jan-22 09:27 33.388787 -118.436981 158 2441ft 78kts
15-Jan-22 09:28 33.373002 -118.426918 96 3118ft 68kts
15-Jan-22 09:29 33.373009 -118.402984 100 3788ft 87kts
15-Jan-22 09:30 33.368391 -118.369243 98 4075ft 105kts
15-Jan-22 09:31 33.363943 -118.336129 99 4665ft 102kts
15-Jan-22 09:32 33.359202 -118.300339 99 4878ft 117kts
15-Jan-22 09:33 33.354239 -118.262845 99 4885ft 107kts
15-Jan-22 09:34 33.349651 -118.228285 99 4890ft 104kts
15-Jan-22 09:35 33.345038 -118.193327 99 4892ft 109kts
15-Jan-22 09:36 33.340221 -118.157049 99 4890ft 110kts
15-Jan-22 09:37 33.335379 -118.120588 99 4890ft 111kts
15-Jan-22 09:38 33.330531 -118.083941 99 4892ft 112kts
15-Jan-22 09:39 33.325627 -118.046995 99 4892ft 112kts
15-Jan-22 09:40 33.320719 -118.009992 99 4892ft 113kts
15-Jan-22 09:41 33.315788 -117.972858 99 4891ft 113kts
15-Jan-22 09:42 33.310810 -117.935564 98 4891ft 114kts
15-Jan-22 09:43 33.305848 -117.897971 98 4891ft 114kts
15-Jan-22 09:44 33.300839 -117.860303 98 4890ft 115kts
15-Jan-22 09:45 33.295840 -117.822502 98 4900ft 114kts
15-Jan-22 09:46 33.290831 -117.784923 98 4923ft 115kts
15-Jan-22 09:47 33.285768 -117.746814 98 4924ft 116kts
15-Jan-22 09:48 33.280220 -117.708577 99 4924ft 116kts
15-Jan-22 09:49 33.275131 -117.672777 94 4927ft 113kts
15-Jan-22 09:50 33.269786 -117.634765 100 4915ft 118kts
15-Jan-22 09:51 33.264342 -117.595894 97 4904ft 118kts
15-Jan-22 09:52 33.259094 -117.556810 97 4905ft 120kts
15-Jan-22 09:53 33.253822 -117.517107 98 4907ft 121kts
15-Jan-22 09:54 33.248532 -117.477284 98 4903ft 122kts
15-Jan-22 09:55 33.243200 -117.437026 97 4899ft 122kts
15-Jan-22 09:56 33.222849 -117.408533 158 4907ft 120kts
15-Jan-22 09:57 33.197871 -117.384582 122 4909ft 123kts
15-Jan-22 09:58 33.179517 -117.349348 121 4896ft 124kts
15-Jan-22 09:59 33.161468 -117.314291 121 4892ft 122kts
15-Jan-22 10:00 33.144670 -117.284065 121 4906ft 114kts
15-Jan-22 10:01 33.127189 -117.250234 120 4903ft 121kts
15-Jan-22 10:02 33.109628 -117.215953 121 4905ft 121kts
15-Jan-22 10:03 33.091941 -117.181602 121 4902ft 121kts
15-Jan-22 10:04 33.074418 -117.147549 121 4915ft 121kts
15-Jan-22 10:05 33.056941 -117.113264 121 4906ft 120kts
15-Jan-22 10:06 33.039291 -117.078650 121 4916ft 124kts
15-Jan-22 10:07 33.021422 -117.043480 121 4901ft 123kts
15-Jan-22 10:08 33.003828 -117.008938 121 4906ft 121kts
15-Jan-22 10:09 32.986347 -116.974678 121 4900ft 119kts
15-Jan-22 10:11 32.969257 -116.941296 121 4898ft 115kts
15-Jan-22 10:12 32.951461 -116.909491 154 4906ft 115kts
15-Jan-22 10:13 32.921256 -116.896290 161 4914ft 117kts
15-Jan-22 10:14 32.890220 -116.883641 161 4907ft 117kts
15-Jan-22 10:15 32.859652 -116.871294 161 4907ft 116kts
15-Jan-22 10:16 32.828595 -116.862149 170 4910ft 115kts
15-Jan-22 10:17 32.797071 -116.856376 171 4912ft 115kts
15-Jan-22 10:18 32.765436 -116.851226 186 4910ft 114kts
15-Jan-22 10:19 32.734182 -116.857939 190 4912ft 114kts
15-Jan-22 10:20 32.703088 -116.865475 191 4913ft 111kts
15-Jan-22 10:21 32.675115 -116.872336 190 4914ft 97kts
15-Jan-22 10:22 32.663015 -116.894655 270 4913ft 95kts
15-Jan-22 10:23 32.669579 -116.927372 287 4394ft 99kts
15-Jan-22 10:24 32.676816 -116.954917 284 3940ft 67kts
15-Jan-22 10:25 32.682797 -116.980891 285 3346ft 103kts
15-Jan-22 10:26 32.691720 -117.016961 287 2773ft 120kts
15-Jan-22 10:27 32.701022 -117.055705 287 2230ft 104kts
15-Jan-22 10:28 32.708736 -117.087143 288 1721ft 98kts
15-Jan-22 10:29 32.716238 -117.118215 287 1241ft 97kts
15-Jan-22 10:30 32.723591 -117.148652 288 740ft 85kts
15-Jan-22 10:31 32.729395 -117.172480 292 172ft 77kts
15-Jan-22 10:32 32.733769 -117.191124 251 18ft 8kts
15-Jan-22 10:32 32.733237 -117.191572 161 18ft 0kts
15-Jan-22 10:34 32.731910 -117.190933 269 20ft 5kts

Navigation Log

Ident Type
Flight plan parsing failed, navigation log unavailable